Time;durP1;ratioP1;P1;durP2;ratioP2;P2;SDS_P1;SDS_P2;PMS_P1;PMS_P2;Temp;Humidity;BMP_temperature;BMP_pressure;BME280_temperature;BME280_humidity;BME280_pressure;Samples;Min_cycle;Max_cycle;Signal;HPM_P1;HPM_P2
2022/04/25 00:00:36;;;;;;;19.50;6.63;;;;;;;8.54;100.00;99157.25;5024141;28;20506;-88
2022/04/25 00:03:03;;;;;;;17.58;6.63;;;;;;;8.92;100.00;99187.00;5025166;28;20045;-89
2022/04/25 00:05:29;;;;;;;17.42;6.95;;;;;;;8.95;100.00;99178.81;5006912;28;20403;-88
2022/04/25 00:07:55;;;;;;;13.95;6.88;;;;;;;8.67;100.00;99179.38;5018413;28;20029;-88
2022/04/25 00:10:21;;;;;;;13.20;5.95;;;;;;;8.84;100.00;99193.13;5014048;28;20037;-88
2022/04/25 00:12:48;;;;;;;12.02;5.47;;;;;;;8.60;100.00;99160.97;5006447;28;20511;-88
2022/04/25 00:15:14;;;;;;;14.90;6.13;;;;;;;8.75;100.00;99188.97;5025448;28;20041;-87
2022/04/25 00:17:43;;;;;;;12.88;5.57;;;;;;;8.76;100.00;99190.59;5026376;28;20030;-89
2022/04/25 00:20:10;;;;;;;16.08;6.65;;;;;;;8.50;100.00;99173.50;5036098;28;21952;-89
2022/04/25 00:22:36;;;;;;;12.88;6.82;;;;;;;8.48;100.00;99165.78;5009612;28;20057;-88
2022/04/25 00:25:02;;;;;;;16.27;6.68;;;;;;;8.39;100.00;99172.09;5038604;28;20096;-88
2022/04/25 00:27:29;;;;;;;18.52;6.82;;;;;;;8.46;100.00;99182.69;5017300;28;20025;-89
2022/04/25 00:29:56;;;;;;;21.35;6.32;;;;;;;7.97;100.00;99122.75;5027410;28;20038;-89
2022/04/25 00:32:23;;;;;;;16.10;6.65;;;;;;;8.26;100.00;99180.56;5043342;28;20396;-88
2022/04/25 00:34:49;;;;;;;21.98;7.38;;;;;;;8.01;100.00;99146.72;5018995;28;20116;-90
2022/04/25 00:37:15;;;;;;;24.40;7.72;;;;;;;8.04;100.00;99150.81;5028206;28;20383;-91
2022/04/25 00:39:40;;;;;;;19.13;8.32;;;;;;;8.04;100.00;99154.22;5042651;28;20033;-89
2022/04/25 00:42:07;;;;;;;17.02;7.47;;;;;;;7.94;100.00;99161.50;5009505;28;20032;-89
2022/04/25 00:44:42;;;;;;;12.52;7.72;;;;;;;7.50;100.00;99111.47;5044298;28;20149;-89
2022/04/25 00:47:52;;;;;;;17.73;7.10;;;;;;;7.46;100.00;99104.94;5028943;28;20028;-89
2022/04/25 00:50:26;;;;;;;21.52;7.50;;;;;;;7.67;100.00;99093.09;5009635;28;20581;-88
2022/04/25 00:52:53;;;;;;;21.73;7.88;;;;;;;7.72;100.00;99101.22;5009038;28;20025;-89
2022/04/25 00:55:19;;;;;;;22.30;8.07;;;;;;;7.60;100.00;99107.81;5027355;28;20487;-88
2022/04/25 00:57:46;;;;;;;12.43;7.35;;;;;;;8.07;100.00;99138.22;5012332;28;20038;-88
2022/04/25 01:00:13;;;;;;;20.23;8.05;;;;;;;7.73;100.00;99097.63;5042035;28;20025;-90
2022/04/25 01:02:39;;;;;;;15.32;7.05;;;;;;;8.00;100.00;99126.81;5037208;28;20542;-89
2022/04/25 01:05:09;;;;;;;18.35;7.45;;;;;;;7.80;100.00;99108.19;5008768;28;20033;-90
2022/04/25 01:07:37;;;;;;;20.33;7.40;;;;;;;7.66;100.00;99101.88;5018271;28;20025;-88
2022/04/25 01:10:08;;;;;;;13.55;7.22;;;;;;;7.35;100.00;99094.91;5026591;28;20095;-88
2022/04/25 01:12:34;;;;;;;11.65;6.65;;;;;;;7.76;100.00;99140.84;5027086;28;20430;-87
2022/04/25 01:15:08;;;;;;;14.20;7.10;;;;;;;7.52;100.00;99127.78;5026232;28;20033;-88
2022/04/25 01:17:34;;;;;;;14.48;7.03;;;;;;;7.37;100.00;99125.09;5027129;28;20116;-88
2022/04/25 01:20:00;;;;;;;26.15;8.88;;;;;;;7.23;100.00;99116.19;5029207;28;20443;-88
2022/04/25 01:22:42;;;;;;;15.68;7.95;;;;;;;6.98;100.00;99094.63;5021620;28;20075;-89
2022/04/25 01:28:01;;;;;;;15.73;7.07;;;;;;;6.79;100.00;99070.56;5031099;28;20495;-89
2022/04/25 01:30:30;;;;;;;20.05;8.07;;;;;;;6.81;100.00;99093.84;5025620;28;20584;-89
2022/04/25 01:32:56;;;;;;;19.20;8.45;;;;;;;6.81;100.00;99072.97;5031127;28;20042;-89
2022/04/25 01:35:22;;;;;;;14.88;8.18;;;;;;;6.95;100.00;99110.59;5026742;28;20115;-90
2022/04/25 01:37:48;;;;;;;14.00;7.53;;;;;;;6.40;100.00;99050.47;5030021;28;20021;-89
2022/04/25 01:43:34;;;;;;;20.95;8.43;;;;;;;6.50;100.00;99065.91;5029858;28;20029;-88
2022/04/25 01:46:25;;;;;;;21.58;7.93;;;;;;;6.24;100.00;99031.25;5038571;28;20115;-91
2022/04/25 01:49:06;;;;;;;24.92;8.32;;;;;;;6.53;100.00;99109.91;5037087;28;20033;-88
2022/04/25 01:51:33;;;;;;;19.30;8.35;;;;;;;6.54;100.00;99088.06;5007431;28;20037;-91
2022/04/25 01:53:58;;;;;;;28.17;7.90;;;;;;;6.68;100.00;99110.88;5027612;28;20033;-87
2022/04/25 01:56:24;;;;;;;19.40;7.95;;;;;;;6.54;100.00;99090.69;5023689;28;20111;-88
2022/04/25 01:58:50;;;;;;;20.98;7.93;;;;;;;6.53;100.00;99094.25;5007707;28;20049;-88
2022/04/25 02:01:16;;;;;;;17.90;7.80;;;;;;;6.28;100.00;99058.63;5008993;28;20033;-88
2022/04/25 02:03:43;;;;;;;20.70;8.10;;;;;;;6.43;100.00;99076.19;5045392;28;20112;-89
2022/04/25 02:06:10;;;;;;;18.70;8.05;;;;;;;6.41;100.00;99068.53;5023435;28;20028;-88
2022/04/25 02:08:37;;;;;;;17.08;7.70;;;;;;;6.47;100.00;99103.56;5027110;28;20026;-90
2022/04/25 02:11:22;;;;;;;21.75;7.25;;;;;;;6.55;100.00;99105.34;5022273;28;20471;-88
2022/04/25 02:13:51;;;;;;;16.65;8.68;;;;;;;6.46;100.00;99091.50;5033202;28;20088;-90
2022/04/25 02:16:16;;;;;;;20.17;8.55;;;;;;;6.38;100.00;99087.13;5026064;28;20479;-87
2022/04/25 02:18:42;;;;;;;21.35;9.02;;;;;;;6.59;100.00;99098.81;5012139;28;20443;-88
2022/04/25 02:21:09;;;;;;;20.63;8.02;;;;;;;6.62;100.00;99108.09;5013344;28;20116;-86
2022/04/25 02:23:35;;;;;;;15.00;8.07;;;;;;;6.61;100.00;99107.28;5032601;28;20111;-86
2022/04/25 02:26:01;;;;;;;17.10;7.65;;;;;;;6.42;100.00;99106.66;5005331;28;20037;-87
2022/04/25 02:28:27;;;;;;;17.45;7.68;;;;;;;6.38;100.00;99100.16;5006705;28;20031;-88
2022/04/25 02:30:53;;;;;;;26.92;9.10;;;;;;;6.13;100.00;99068.91;5023671;28;20033;-87
2022/04/25 02:33:20;;;;;;;17.52;7.60;;;;;;;6.09;100.00;99065.00;5010910;28;21498;-88
2022/04/25 02:35:45;;;;;;;26.67;7.85;;;;;;;5.85;100.00;99040.56;5014556;28;20037;-89
2022/04/25 02:38:11;;;;;;;26.77;8.57;;;;;;;5.98;100.00;99065.31;5013227;28;20108;-90
2022/04/25 02:40:37;;;;;;;20.10;8.18;;;;;;;6.23;100.00;99097.41;5037666;28;20506;-88
2022/04/25 02:43:03;;;;;;;19.65;7.82;;;;;;;6.18;100.00;99099.69;5035004;28;20029;-89
2022/04/25 02:45:29;;;;;;;21.27;8.18;;;;;;;5.88;100.00;99073.28;5020451;28;20049;-88
2022/04/25 02:47:55;;;;;;;19.85;7.82;;;;;;;5.67;100.00;99056.34;5028963;28;20040;-88
2022/04/25 02:50:21;;;;;;;28.17;9.07;;;;;;;6.04;100.00;99092.53;5016659;28;20043;-90
2022/04/25 02:52:51;;;;;;;19.75;7.25;;;;;;;5.77;100.00;99066.63;5036936;28;20033;-89
2022/04/25 02:55:16;;;;;;;18.33;8.55;;;;;;;5.76;100.00;99083.22;5007875;28;20033;-90
2022/04/25 02:57:42;;;;;;;23.27;7.70;;;;;;;5.81;100.00;99078.34;5030721;28;20075;-88
2022/04/25 03:00:08;;;;;;;27.95;8.57;;;;;;;5.83;100.00;99060.75;5004595;28;20116;-89
2022/04/25 03:02:34;;;;;;;24.48;8.27;;;;;;;5.88;100.00;99075.06;5026418;28;20045;-92
2022/04/25 03:04:59;;;;;;;17.75;8.20;;;;;;;5.82;100.00;99059.13;5007235;28;20403;-92
2022/04/25 03:07:25;;;;;;;19.83;8.90;;;;;;;5.67;100.00;99060.75;5006384;28;20395;-88
2022/04/25 03:09:51;;;;;;;27.23;8.88;;;;;;;5.21;100.00;98980.47;5022109;28;20037;-88
2022/04/25 03:12:20;;;;;;;20.88;8.73;;;;;;;5.06;100.00;98964.69;5029325;28;20050;-90
2022/04/25 03:14:53;;;;;;;20.35;8.98;;;;;;;5.45;100.00;99036.16;5015030;28;20037;-87
2022/04/25 03:17:19;;;;;;;24.38;8.60;;;;;;;4.92;100.00;98973.94;5039406;28;20027;-91
2022/04/25 03:19:44;;;;;;;27.55;8.90;;;;;;;5.36;100.00;99040.53;5009960;28;20048;-88
2022/04/25 03:22:16;;;;;;;26.25;7.88;;;;;;;5.31;100.00;99029.81;5026536;28;20112;-89
2022/04/25 03:25:15;;;;;;;21.23;8.15;;;;;;;5.45;100.00;99046.56;5023955;28;20100;-89
2022/04/25 03:27:40;;;;;;;25.40;8.13;;;;;;;4.97;100.00;98977.69;5028861;28;20518;-90
2022/04/25 03:30:06;;;;;;;18.90;8.10;;;;;;;5.45;100.00;99047.38;5025049;28;20037;-91
2022/04/25 03:32:34;;;;;;;15.25;8.07;;;;;;;5.64;100.00;99064.50;5025829;28;20037;-89
2022/04/25 03:35:03;;;;;;;16.35;7.90;;;;;;;5.54;100.00;99062.03;5020667;28;20034;-88
2022/04/25 03:37:35;;;;;;;23.20;7.70;;;;;;;5.05;100.00;98996.88;5012053;28;20036;-88
2022/04/25 03:40:01;;;;;;;18.88;8.02;;;;;;;5.26;100.00;99027.69;5008500;28;20053;-88
2022/04/25 03:42:27;;;;;;;22.63;7.50;;;;;;;5.38;100.00;99057.63;5038759;28;20037;-87
2022/04/25 03:44:54;;;;;;;26.40;9.27;;;;;;;5.06;100.00;99017.56;5027686;28;20033;-88
2022/04/25 03:47:19;;;;;;;22.50;7.70;;;;;;;5.53;100.00;99094.28;5026530;28;20034;-86
2022/04/25 03:49:45;;;;;;;25.98;7.05;;;;;;;5.32;100.00;99052.25;5028891;28;20491;-87
2022/04/25 03:52:11;;;;;;;24.17;7.22;;;;;;;5.44;100.00;99071.78;5038938;28;20029;-87
2022/04/25 03:57:21;;;;;;;26.00;7.55;;;;;;;5.44;100.00;99071.78;5036955;28;20471;-89
2022/04/25 03:59:47;;;;;;;22.83;8.20;;;;;;;5.05;100.00;99007.28;5045200;28;20059;-87
2022/04/25 04:02:13;;;;;;;16.83;6.45;;;;;;;5.19;100.00;99056.13;5026590;28;20034;-89
2022/04/25 04:04:38;;;;;;;24.30;6.63;;;;;;;5.41;100.00;99069.50;5016390;28;20053;-88
2022/04/25 04:07:05;;;;;;;20.25;7.53;;;;;;;5.37;100.00;99065.59;5032457;28;20034;-89
2022/04/25 04:09:46;;;;;;;19.98;7.03;;;;;;;5.20;100.00;99055.16;5015751;28;20080;-87
2022/04/25 04:12:19;;;;;;;18.30;6.85;;;;;;;5.20;100.00;99043.91;5011610;28;20049;-89
2022/04/25 04:14:46;;;;;;;19.13;7.90;;;;;;;5.22;100.00;99058.41;5041086;28;20400;-88
2022/04/25 04:17:17;;;;;;;20.95;7.25;;;;;;;5.30;100.00;99060.22;5026565;28;20033;-88
2022/04/25 04:19:52;;;;;;;17.23;7.53;;;;;;;5.43;100.00;99070.16;5036064;28;20034;-87
2022/04/25 04:22:25;;;;;;;22.83;7.18;;;;;;;5.38;100.00;99069.81;5027990;28;20038;-86
2022/04/25 04:24:51;;;;;;;17.23;7.70;;;;;;;5.45;100.00;99073.41;5028473;28;20560;-89
2022/04/25 04:27:20;;;;;;;20.17;7.50;;;;;;;5.40;100.00;99066.09;5043639;28;20038;-86
2022/04/25 04:29:46;;;;;;;17.73;6.45;;;;;;;5.17;100.00;99046.84;5027268;28;20094;-88
2022/04/25 04:32:15;;;;;;;17.60;7.78;;;;;;;5.25;100.00;99047.66;5022289;28;20056;-87
2022/04/25 04:34:40;;;;;;;19.67;7.35;;;;;;;5.22;100.00;99063.59;5021879;28;20026;-88
2022/04/25 04:37:07;;;;;;;23.50;6.93;;;;;;;5.25;100.00;99050.28;5007651;28;20453;-90
2022/04/25 04:39:42;;;;;;;18.10;7.97;;;;;;;5.21;100.00;99064.59;5010786;28;20104;-89
2022/04/25 04:42:08;;;;;;;23.42;6.95;;;;;;;5.34;100.00;99065.91;5035908;28;20053;-89
2022/04/25 04:44:36;;;;;;;23.60;8.63;;;;;;;5.36;100.00;99090.81;5027639;28;20045;-91
2022/04/25 04:47:03;;;;;;;19.45;7.82;;;;;;;5.05;100.00;99043.72;5028541;28;20033;-89
2022/04/25 04:49:29;;;;;;;23.65;8.13;;;;;;;5.28;100.00;99086.38;5028573;28;20120;-88
2022/04/25 04:51:54;;;;;;;19.02;7.53;;;;;;;5.28;100.00;99086.38;5012835;28;20073;-89
2022/04/25 04:54:20;;;;;;;25.73;8.05;;;;;;;5.26;100.00;99085.72;5016459;28;20140;-88
2022/04/25 04:56:46;;;;;;;18.75;7.40;;;;;;;5.22;100.00;99081.81;5027900;28;20018;-88
2022/04/25 04:59:11;;;;;;;19.60;8.18;;;;;;;5.10;100.00;99070.06;5026958;28;20113;-89
2022/04/25 05:01:39;;;;;;;25.75;7.47;;;;;;;5.12;100.00;99052.53;5008678;28;20049;-88
2022/04/25 05:04:05;;;;;;;17.90;7.28;;;;;;;5.14;100.00;99079.22;5027135;28;20029;-88
2022/04/25 05:06:30;;;;;;;24.05;8.15;;;;;;;5.28;100.00;99083.78;5029341;28;20037;-87
2022/04/25 05:08:56;;;;;;;18.20;8.13;;;;;;;5.39;100.00;99077.47;5009822;28;20112;-89
2022/04/25 05:11:22;;;;;;;27.42;8.25;;;;;;;5.22;100.00;99039.38;5025903;28;20061;-89
2022/04/25 05:13:48;;;;;;;18.05;8.05;;;;;;;5.63;100.00;99099.31;5030354;28;20037;-88
2022/04/25 05:16:14;;;;;;;18.58;7.78;;;;;;;5.69;100.00;99118.69;5017597;28;20048;-90
2022/04/25 05:18:40;;;;;;;17.35;7.45;;;;;;;5.71;100.00;99108.94;5028070;28;20490;-88
2022/04/25 05:21:06;;;;;;;22.17;7.75;;;;;;;5.49;100.00;99092.94;5019659;28;20431;-89
2022/04/25 05:23:32;;;;;;;19.75;7.40;;;;;;;5.86;100.00;99129.94;5014653;28;20037;-91
2022/04/25 05:26:00;;;;;;;21.00;8.45;;;;;;;5.81;100.00;99119.22;5025188;28;20041;-89
2022/04/25 05:28:32;;;;;;;14.40;7.60;;;;;;;5.80;100.00;99128.81;5007609;28;20464;-88
2022/04/25 05:30:57;;;;;;;20.15;9.30;;;;;;;5.93;100.00;99112.69;5021074;28;20045;-89
2022/04/25 05:33:23;;;;;;;16.75;7.60;;;;;;;5.97;100.00;99123.59;5034821;28;20033;-88
2022/04/25 05:35:49;;;;;;;17.98;7.18;;;;;;;6.05;100.00;99115.81;5006010;28;20104;-89
2022/04/25 05:38:15;;;;;;;17.75;8.35;;;;;;;6.24;100.00;99124.28;5010500;28;20079;-86
2022/04/25 05:40:42;;;;;;;19.85;8.43;;;;;;;6.51;100.00;99110.06;5025175;28;20043;-89
2022/04/25 05:43:07;;;;;;;19.77;7.88;;;;;;;6.57;100.00;99112.00;5008229;28;20018;-87
2022/04/25 05:45:34;;;;;;;17.42;6.72;;;;;;;6.65;100.00;99115.59;5008945;28;20025;-90
2022/04/25 05:48:00;;;;;;;14.43;7.05;;;;;;;6.45;100.00;99115.94;5036210;28;20048;-89
2022/04/25 05:53:12;;;;;;;16.60;7.18;;;;;;;6.60;100.00;99097.81;5027418;28;20037;-90
2022/04/25 05:55:38;;;;;;;18.40;7.32;;;;;;;6.45;100.00;99107.31;5025216;28;20095;-89
2022/04/25 05:58:06;;;;;;;15.95;7.00;;;;;;;6.33;100.00;99065.94;5014257;28;20025;-88
2022/04/25 06:00:33;;;;;;;18.08;7.07;;;;;;;6.78;100.00;99138.53;5007786;28;20030;-90
2022/04/25 06:02:59;;;;;;;15.52;7.07;;;;;;;6.50;100.00;99092.78;5033631;28;20056;-90
2022/04/25 06:05:26;;;;;;;19.35;7.90;;;;;;;6.52;100.00;99103.06;5033502;28;20129;-90
2022/04/25 06:07:52;;;;;;;19.25;7.75;;;;;;;6.81;100.00;99143.41;5036696;28;20029;-88
2022/04/25 06:10:19;;;;;;;15.05;7.03;;;;;;;6.63;100.00;99117.56;5018211;28;20044;-88
2022/04/25 06:12:48;;;;;;;19.77;8.07;;;;;;;6.76;100.00;99085.72;5034358;28;20041;-90
2022/04/25 06:15:16;;;;;;;18.60;7.13;;;;;;;7.06;100.00;99083.31;5046104;28;20065;-90
2022/04/25 06:17:44;;;;;;;17.40;7.70;;;;;;;7.53;100.00;99118.97;5009558;28;20021;-91
2022/04/25 06:20:10;;;;;;;19.02;7.50;;;;;;;7.68;100.00;99126.06;5035733;28;20033;-92
2022/04/25 06:22:37;;;;;;;14.43;6.90;;;;;;;7.86;100.00;99141.44;5024158;28;20030;-91
2022/04/25 06:25:04;;;;;;;20.52;6.55;;;;;;;7.74;100.00;99090.56;5036829;28;20131;-91
2022/04/25 06:27:30;;;;;;;12.77;6.20;;;;;;;7.93;100.00;99105.78;5035639;28;20036;-89
2022/04/25 06:29:56;;;;;;;16.20;6.25;;;;;;;8.38;100.00;99139.88;5033674;28;20037;-88
2022/04/25 06:32:26;;;;;;;15.80;7.00;;;;;;;8.57;100.00;99127.31;5043557;28;20043;-91
2022/04/25 06:34:52;;;;;;;26.73;7.90;;;;;;;8.57;100.00;99090.69;5042276;28;20044;-90
2022/04/25 06:37:18;;;;;;;15.55;5.78;;;;;;;8.64;100.00;99086.34;5038350;28;20021;-90
2022/04/25 06:39:44;;;;;;;12.27;5.28;;;;;;;8.41;100.00;99089.84;5031148;28;20037;-91
2022/04/25 06:42:10;;;;;;;15.80;5.68;;;;;;;8.07;100.00;99072.03;4993230;28;20065;-92
2022/04/25 06:44:40;;;;;;;10.80;5.78;;;;;;;8.32;100.00;99072.59;5011749;28;20030;-90
2022/04/25 06:47:06;;;;;;;10.80;5.78;;;;;;;8.52;100.00;99122.63;4993811;28;20034;-91
2022/04/25 06:49:35;;;;;;;12.95;5.13;;;;;;;8.38;100.00;99105.88;5008535;28;20041;-90
2022/04/25 06:52:01;;;;;;;14.13;5.65;;;;;;;8.03;100.00;99084.63;4994841;28;20025;-90
2022/04/25 06:54:39;;;;;;;18.65;6.45;;;;;;;7.75;100.00;99056.44;4993287;28;20064;-92
2022/04/25 06:57:06;;;;;;;14.00;6.20;;;;;;;8.39;100.00;99123.19;4992252;28;20030;-91
2022/04/25 06:59:32;;;;;;;13.00;5.90;;;;;;;8.39;100.00;99102.28;5008098;28;20472;-89
2022/04/25 07:01:57;;;;;;;17.75;5.60;;;;;;;8.73;100.00;99118.47;5008796;28;20492;-89
2022/04/25 07:04:24;;;;;;;16.30;5.82;;;;;;;8.90;100.00;99118.28;5010627;28;20058;-92
2022/04/25 07:06:50;;;;;;;15.25;5.15;;;;;;;9.06;100.00;99133.03;5005126;28;20032;-88
2022/04/25 07:09:16;;;;;;;10.65;5.38;;;;;;;8.69;100.00;99067.50;5027422;28;20025;-87
2022/04/25 07:11:44;;;;;;;12.15;6.03;;;;;;;9.27;100.00;99127.84;5004241;28;20034;-86
2022/04/25 07:14:15;;;;;;;13.48;6.00;;;;;;;9.47;100.00;99145.59;5037335;28;20084;-85
2022/04/25 07:16:44;;;;;;;13.95;6.15;;;;;;;9.53;100.00;99139.59;5027140;28;20101;-85
2022/04/25 07:19:09;;;;;;;13.63;5.50;;;;;;;9.62;100.00;99121.13;5023657;28;20085;-86
2022/04/25 07:29:49;;;;;;;12.80;4.72;;;;;;;9.63;100.00;99109.66;5035533;28;20048;-88
2022/04/25 07:32:15;;;;;;;13.07;4.97;;;;;;;9.99;100.00;99129.75;5019558;28;20041;-88
2022/04/25 07:34:43;;;;;;;14.27;5.43;;;;;;;9.86;100.00;99091.94;5019383;28;20033;-88
2022/04/25 07:37:10;;;;;;;12.77;5.97;;;;;;;9.88;100.00;99132.91;5035922;28;20083;-90
2022/04/25 07:39:35;;;;;;;13.45;5.18;;;;;;;10.06;100.00;99122.78;5019151;28;20492;-90
2022/04/25 07:42:02;;;;;;;9.50;5.05;;;;;;;10.10;100.00;99116.16;5020437;28;20026;-90
2022/04/25 07:44:28;;;;;;;10.25;5.43;;;;;;;10.35;100.00;99125.41;5035934;28;20025;-89
2022/04/25 07:46:53;;;;;;;11.52;5.10;;;;;;;10.71;100.00;99121.84;5037968;28;20038;-89
2022/04/25 07:49:19;;;;;;;11.27;5.47;;;;;;;11.04;100.00;99117.78;5022230;28;20077;-88
2022/04/25 07:51:47;;;;;;;13.95;4.88;;;;;;;11.36;100.00;99168.84;5037726;28;20029;-90
2022/04/25 07:54:14;;;;;;;13.57;6.30;;;;;;;11.36;100.00;99162.75;5037752;28;20506;-90
2022/04/25 07:56:42;;;;;;;9.82;4.50;;;;;;;11.28;100.00;99140.91;5022780;28;20037;-90
2022/04/25 07:59:09;;;;;;;17.38;5.00;;;;;;;11.16;100.00;99125.91;5024059;28;20111;-89
2022/04/25 08:01:35;;;;;;;14.95;6.00;;;;;;;11.12;100.00;99126.28;5023705;28;20037;-87
2022/04/25 08:04:02;;;;;;;10.75;4.93;;;;;;;11.34;100.00;99144.56;5010564;28;20038;-89
2022/04/25 08:06:30;;;;;;;11.57;4.90;;;;;;;11.79;100.00;99159.03;5026781;28;20033;-90
2022/04/25 08:08:58;;;;;;;9.02;4.53;;;;;;;11.88;100.00;99149.16;5025004;28;20034;-91
2022/04/25 08:11:24;;;;;;;12.05;5.45;;;;;;;11.72;100.00;99151.13;5016377;28;20068;-90
2022/04/25 08:17:58;;;;;;;11.70;5.38;;;;;;;11.22;100.00;99088.31;5031924;28;20061;-91
2022/04/25 08:19:42;;;;;;;19.55;5.88;;;;;;;11.76;100.00;99185.75;5029553;28;20480;-90
2022/04/25 08:22:10;;;;;;;18.75;5.85;;;;;;;11.19;100.00;99123.66;5000162;28;20056;-89
2022/04/25 08:24:37;;;;;;;8.82;5.03;;;;;;;11.45;100.00;99142.34;5032065;28;20035;-89
2022/04/25 08:27:05;;;;;;;13.13;5.60;;;;;;;11.89;100.00;99180.53;5032125;28;20118;-90
2022/04/25 08:29:32;;;;;;;10.57;5.38;;;;;;;11.40;100.00;99095.66;5029552;28;20037;-90
2022/04/25 08:31:58;;;;;;;15.15;6.15;;;;;;;11.79;100.00;99130.94;5011905;28;20078;-91
2022/04/25 08:34:26;;;;;;;21.08;6.65;;;;;;;12.02;100.00;99171.88;5012231;28;20443;-90
2022/04/25 08:36:52;;;;;;;13.85;6.25;;;;;;;11.63;100.00;99105.00;5036317;28;20475;-90
2022/04/25 08:39:19;;;;;;;16.88;6.32;;;;;;;12.23;100.00;99178.75;5041741;28;20033;-90
2022/04/25 08:41:50;;;;;;;14.98;5.93;;;;;;;12.19;100.00;99192.53;5029219;28;20088;-89
2022/04/25 08:44:17;;;;;;;16.10;6.75;;;;;;;12.46;100.00;99188.06;5029269;28;20113;-91
2022/04/25 08:46:51;;;;;;;21.38;7.97;;;;;;;12.60;100.00;99130.94;5025078;28;20540;-87
2022/04/25 08:49:18;;;;;;;16.83;7.97;;;;;;;13.13;100.00;99171.34;5039159;28;20056;-87
2022/04/25 08:51:47;;;;;;;13.25;6.32;;;;;;;13.33;100.00;99186.28;5018838;28;20487;-87
2022/04/25 08:54:14;;;;;;;16.75;7.03;;;;;;;12.95;100.00;99183.34;5019059;28;20243;-85
2022/04/25 08:56:42;;;;;;;16.17;7.32;;;;;;;12.58;100.00;99190.91;5036359;28;20119;-88
2022/04/25 08:59:09;;;;;;;17.75;7.85;;;;;;;12.41;100.00;99195.75;5020144;28;20083;-88
2022/04/25 09:01:36;;;;;;;18.23;8.35;;;;;;;12.40;100.00;99202.03;5053183;28;20041;-89
2022/04/25 09:04:03;;;;;;;17.77;8.27;;;;;;;12.13;100.00;99152.84;5006960;28;20041;-87
2022/04/25 09:06:31;;;;;;;16.95;7.30;;;;;;;12.05;100.00;99171.47;5036174;28;20040;-88
2022/04/25 09:08:57;;;;;;;20.67;8.95;;;;;;;11.96;100.00;99198.91;5019118;28;20032;-85
2022/04/25 09:14:11;;;;;;;19.50;9.10;;;;;;;11.62;100.00;99196.22;5030507;28;20033;-86
2022/04/25 09:16:39;;;;;;;23.80;8.90;;;;;;;11.66;100.00;99221.09;5023779;28;20539;-86
2022/04/25 09:19:05;;;;;;;16.33;7.68;;;;;;;11.76;100.00;99188.38;5034789;28;20043;-86
2022/04/25 09:21:40;;;;;;;14.32;9.13;;;;;;;11.61;100.00;99175.38;5022311;28;20033;-86
2022/04/25 09:24:20;;;;;;;17.42;9.15;;;;;;;11.98;100.00;99223.19;5008592;28;20112;-86
2022/04/25 09:26:47;;;;;;;15.30;9.43;;;;;;;11.90;100.00;99212.88;5037072;28;20140;-89
2022/04/25 09:29:13;;;;;;;20.35;8.82;;;;;;;12.00;100.00;99189.66;5019419;28;20088;-91
2022/04/25 09:31:47;;;;;;;14.40;8.35;;;;;;;12.32;100.00;99208.31;5006016;28;20598;-86
2022/04/25 09:34:15;;;;;;;18.10;8.93;;;;;;;12.48;100.00;99180.78;5003128;28;20037;-89
2022/04/25 09:36:48;;;;;;;14.88;9.05;;;;;;;13.13;100.00;99231.94;4999400;28;20391;-85
2022/04/25 09:39:28;;;;;;;21.20;9.00;;;;;;;13.13;100.00;99224.03;5021395;28;20387;-86
2022/04/25 09:41:53;;;;;;;14.90;9.15;;;;;;;12.92;100.00;99217.22;5011516;28;20029;-84
2022/04/25 09:44:20;;;;;;;18.77;9.70;;;;;;;12.78;100.00;99243.56;5022720;28;20040;-85
2022/04/25 09:46:47;;;;;;;18.67;9.90;;;;;;;12.74;100.00;99236.25;5006107;28;20034;-86
2022/04/25 09:49:21;;;;;;;22.20;9.43;;;;;;;12.86;100.00;99222.25;5020005;28;20041;-85
2022/04/25 09:52:03;;;;;;;15.07;8.88;;;;;;;12.91;100.00;99232.19;5023855;28;20091;-85
2022/04/25 09:54:29;;;;;;;14.60;8.93;;;;;;;12.55;100.00;99217.63;5021319;28;20045;-86
2022/04/25 09:56:55;;;;;;;16.92;9.65;;;;;;;12.43;100.00;99228.78;5020880;28;20079;-84
2022/04/25 09:59:22;;;;;;;22.25;10.30;;;;;;;12.06;100.00;99194.13;5033215;28;20057;-87
2022/04/25 10:02:06;;;;;;;18.38;9.68;;;;;;;12.23;100.00;99235.84;5023150;28;20037;-86
2022/04/25 10:04:36;;;;;;;17.02;9.52;;;;;;;12.16;100.00;99240.28;4992646;28;20037;-86
2022/04/25 10:07:03;;;;;;;15.55;9.32;;;;;;;12.23;100.00;99241.13;5013865;28;20091;-85
2022/04/25 10:09:31;;;;;;;20.40;8.73;;;;;;;12.13;100.00;99250.19;5047209;28;20067;-86
2022/04/25 10:12:03;;;;;;;19.17;8.88;;;;;;;11.80;100.00;99235.13;5012179;28;20056;-85
2022/04/25 10:14:28;;;;;;;15.32;9.57;;;;;;;11.35;100.00;99221.56;5007552;28;20146;-85
2022/04/25 10:16:56;;;;;;;20.30;9.73;;;;;;;11.43;100.00;99245.09;5002927;28;20116;-86
2022/04/25 10:19:27;;;;;;;19.27;9.75;;;;;;;11.20;100.00;99233.03;5031905;28;20079;-85
2022/04/25 10:21:54;;;;;;;19.90;9.45;;;;;;;11.41;100.00;99224.25;5006018;28;20029;-86
2022/04/25 10:24:20;;;;;;;17.02;9.65;;;;;;;11.53;100.00;99211.34;5030736;28;20029;-86
2022/04/25 10:26:47;;;;;;;17.88;9.05;;;;;;;11.85;100.00;99234.50;5022314;28;20496;-84
2022/04/25 10:29:52;;;;;;;20.15;10.82;;;;;;;12.13;100.00;99247.56;5021722;28;20071;-86
2022/04/25 10:32:25;;;;;;;17.65;10.20;;;;;;;12.52;100.00;99257.53;4987881;28;20060;-84
2022/04/25 10:34:59;;;;;;;16.98;9.57;;;;;;;12.77;100.00;99251.66;5020363;28;20044;-87
2022/04/25 10:37:36;;;;;;;22.08;11.40;;;;;;;13.11;100.00;99257.69;5027471;28;20080;-85
2022/04/25 10:40:04;;;;;;;16.80;9.90;;;;;;;13.37;100.00;99240.22;5009342;28;20041;-85
2022/04/25 10:45:15;;;;;;;18.73;10.82;;;;;;;14.02;100.00;99244.63;5027841;28;20495;-85
2022/04/25 10:47:58;;;;;;;17.73;9.98;;;;;;;14.41;100.00;99250.66;5023877;28;20121;-85
2022/04/25 10:50:24;;;;;;;19.90;10.35;;;;;;;14.48;100.00;99249.78;5011402;28;20133;-86
2022/04/25 10:52:54;;;;;;;15.82;10.10;;;;;;;14.53;99.99;99248.13;5049932;28;20063;-85
2022/04/25 10:55:38;;;;;;;17.50;9.95;;;;;;;14.16;100.00;99247.97;5028045;28;20029;-86
2022/04/25 10:58:04;;;;;;;19.52;9.35;;;;;;;13.79;100.00;99259.16;5041405;28;20430;-85
2022/04/25 11:00:45;;;;;;;17.90;10.63;;;;;;;13.61;100.00;99264.31;5025003;28;20034;-85
2022/04/25 11:03:19;;;;;;;16.35;11.77;;;;;;;13.62;100.00;99268.56;5012639;28;20044;-84
2022/04/25 11:05:48;;;;;;;23.25;12.52;;;;;;;13.91;100.00;99266.38;5004823;28;20037;-85
2022/04/25 11:08:24;;;;;;;19.92;10.48;;;;;;;13.35;100.00;99279.97;5035403;28;20076;-85
2022/04/25 11:11:04;;;;;;;18.90;10.13;;;;;;;13.45;100.00;99266.38;5023494;28;20128;-86
2022/04/25 11:14:00;;;;;;;17.73;10.77;;;;;;;13.43;100.00;99265.78;5032283;28;20492;-85
2022/04/25 11:16:26;;;;;;;27.85;12.23;;;;;;;13.33;100.00;99281.16;5019157;28;20095;-85
2022/04/25 11:19:15;;;;;;;19.30;12.30;;;;;;;12.98;100.00;99275.16;4999962;28;20040;-85
2022/04/25 11:21:45;;;;;;;18.60;11.93;;;;;;;12.84;100.00;99269.06;5006153;28;20033;-84
2022/04/25 11:24:35;;;;;;;17.90;11.40;;;;;;;12.92;100.00;99286.50;5009665;28;20025;-86
2022/04/25 11:27:05;;;;;;;20.20;11.90;;;;;;;12.74;100.00;99252.88;5025963;28;20124;-85
2022/04/25 11:29:31;;;;;;;17.17;12.07;;;;;;;13.04;100.00;99278.00;5000488;28;20080;-87
2022/04/25 11:32:25;;;;;;;22.58;11.30;;;;;;;13.24;100.00;99278.78;5016606;28;20044;-86
2022/04/25 11:34:51;;;;;;;21.55;11.35;;;;;;;13.31;100.00;99277.94;4999368;28;20025;-87
2022/04/25 11:37:19;;;;;;;16.13;10.38;;;;;;;13.47;100.00;99266.19;5011857;28;20041;-85
2022/04/25 11:40:05;;;;;;;20.10;10.73;;;;;;;13.69;100.00;99264.88;5029172;28;20044;-86
2022/04/25 11:42:34;;;;;;;19.85;10.88;;;;;;;13.30;100.00;99256.06;4996149;28;20034;-85
2022/04/25 11:45:00;;;;;;;18.63;10.52;;;;;;;13.15;100.00;99269.44;5000650;28;20406;-86
2022/04/25 11:47:26;;;;;;;23.83;10.70;;;;;;;12.77;100.00;99272.72;5026369;28;20026;-86
2022/04/25 11:49:56;;;;;;;14.30;10.60;;;;;;;12.78;100.00;99279.63;5045314;28;20107;-85
2022/04/25 11:52:22;;;;;;;18.88;11.55;;;;;;;12.82;100.00;99280.84;5026540;28;20040;-85
2022/04/25 11:54:49;;;;;;;20.35;11.50;;;;;;;12.79;100.00;99276.00;5025575;28;20379;-87
2022/04/25 11:57:15;;;;;;;24.90;11.73;;;;;;;12.84;100.00;99270.91;5011871;28;20033;-86